sensor_id;sensor_type;location;lat;lon;timestamp;pressure;altitude;pressure_sealevel;temperature;humidity
29045;BME280;16133;49.486;12.176;2023-12-04T00:01:31;97901.09;;;-10.06;100.00
29045;BME280;16133;49.486;12.176;2023-12-04T00:03:57;97902.72;;;-10.02;100.00
29045;BME280;16133;49.486;12.176;2023-12-04T00:06:23;97898.31;;;-9.98;100.00
29045;BME280;16133;49.486;12.176;2023-12-04T00:08:48;97899.94;;;-9.94;100.00
29045;BME280;16133;49.486;12.176;2023-12-04T00:11:13;97901.50;;;-9.89;100.00
29045;BME280;16133;49.486;12.176;2023-12-04T00:13:39;97902.19;;;-9.84;100.00
29045;BME280;16133;49.486;12.176;2023-12-04T00:16:04;97902.03;;;-9.78;100.00
29045;BME280;16133;49.486;12.176;2023-12-04T00:18:31;97895.13;;;-9.77;100.00
29045;BME280;16133;49.486;12.176;2023-12-04T00:20:56;97892.53;;;-9.76;100.00
29045;BME280;16133;49.486;12.176;2023-12-04T00:23:21;97896.69;;;-9.72;100.00
29045;BME280;16133;49.486;12.176;2023-12-04T00:25:47;97888.97;;;-9.70;100.00
29045;BME280;16133;49.486;12.176;2023-12-04T00:28:12;97885.44;;;-9.66;100.00
29045;BME280;16133;49.486;12.176;2023-12-04T00:30:38;97876.81;;;-9.65;100.00
29045;BME280;16133;49.486;12.176;2023-12-04T00:33:04;97862.47;;;-9.72;100.00
29045;BME280;16133;49.486;12.176;2023-12-04T00:35:29;97879.25;;;-9.60;100.00
29045;BME280;16133;49.486;12.176;2023-12-04T00:37:54;97880.06;;;-9.58;100.00
29045;BME280;16133;49.486;12.176;2023-12-04T00:40:20;97874.75;;;-9.54;100.00
29045;BME280;16133;49.486;12.176;2023-12-04T00:42:45;97862.66;;;-9.50;100.00
29045;BME280;16133;49.486;12.176;2023-12-04T00:45:10;97860.78;;;-9.44;100.00
29045;BME280;16133;49.486;12.176;2023-12-04T00:47:36;97868.28;;;-9.38;100.00
29045;BME280;16133;49.486;12.176;2023-12-04T00:50:01;97856.91;;;-9.31;100.00
29045;BME280;16133;49.486;12.176;2023-12-04T00:52:26;97864.34;;;-9.22;100.00
29045;BME280;16133;49.486;12.176;2023-12-04T00:54:52;97859.81;;;-9.13;100.00
29045;BME280;16133;49.486;12.176;2023-12-04T00:57:19;97862.88;;;-9.02;100.00
29045;BME280;16133;49.486;12.176;2023-12-04T00:59:44;97857.53;;;-8.96;100.00
29045;BME280;16133;49.486;12.176;2023-12-04T01:02:09;97844.50;;;-8.90;100.00
29045;BME280;16133;49.486;12.176;2023-12-04T01:04:35;97852.19;;;-8.90;100.00
29045;BME280;16133;49.486;12.176;2023-12-04T01:07:01;97853.88;;;-8.89;100.00
29045;BME280;16133;49.486;12.176;2023-12-04T01:09:26;97848.75;;;-8.89;100.00
29045;BME280;16133;49.486;12.176;2023-12-04T01:11:52;97842.03;;;-8.93;100.00
29045;BME280;16133;49.486;12.176;2023-12-04T01:14:18;97837.16;;;-9.02;100.00
29045;BME280;16133;49.486;12.176;2023-12-04T01:16:44;97835.81;;;-9.12;100.00
29045;BME280;16133;49.486;12.176;2023-12-04T01:19:09;97824.09;;;-9.21;100.00
29045;BME280;16133;49.486;12.176;2023-12-04T01:21:35;97829.47;;;-9.29;100.00
29045;BME280;16133;49.486;12.176;2023-12-04T01:24:00;97821.25;;;-9.40;100.00
29045;BME280;16133;49.486;12.176;2023-12-04T01:26:25;97826.69;;;-9.49;100.00
29045;BME280;16133;49.486;12.176;2023-12-04T01:28:51;97822.63;;;-9.56;100.00
29045;BME280;16133;49.486;12.176;2023-12-04T01:31:16;97818.56;;;-9.63;100.00
29045;BME280;16133;49.486;12.176;2023-12-04T01:33:41;97805.13;;;-9.71;100.00
29045;BME280;16133;49.486;12.176;2023-12-04T01:36:07;97797.66;;;-9.79;100.00
29045;BME280;16133;49.486;12.176;2023-12-04T01:38:33;97807.28;;;-9.85;100.00
29045;BME280;16133;49.486;12.176;2023-12-04T01:40:58;97803.16;;;-9.91;100.00
29045;BME280;16133;49.486;12.176;2023-12-04T01:43:23;97799.03;;;-9.96;100.00
29045;BME280;16133;49.486;12.176;2023-12-04T01:45:49;97791.53;;;-10.02;100.00
29045;BME280;16133;49.486;12.176;2023-12-04T01:48:15;97792.50;;;-10.06;100.00
29045;BME280;16133;49.486;12.176;2023-12-04T01:50:40;97790.91;;;-10.10;100.00
29045;BME280;16133;49.486;12.176;2023-12-04T01:53:06;97785.88;;;-10.13;100.00
29045;BME280;16133;49.486;12.176;2023-12-04T01:55:32;97777.38;;;-10.15;100.00
29045;BME280;16133;49.486;12.176;2023-12-04T01:58:00;97776.59;;;-10.18;100.00
29045;BME280;16133;49.486;12.176;2023-12-04T02:00:29;97769.03;;;-10.22;100.00
29045;BME280;16133;49.486;12.176;2023-12-04T02:02:54;97764.88;;;-10.26;100.00
29045;BME280;16133;49.486;12.176;2023-12-04T02:05:21;97756.50;;;-10.31;100.00
29045;BME280;16133;49.486;12.176;2023-12-04T02:07:47;97744.66;;;-10.35;100.00
29045;BME280;16133;49.486;12.176;2023-12-04T02:10:13;97748.97;;;-10.37;100.00
29045;BME280;16133;49.486;12.176;2023-12-04T02:12:38;97735.31;;;-10.38;100.00
29045;BME280;16133;49.486;12.176;2023-12-04T02:15:04;97735.41;;;-10.41;100.00
29045;BME280;16133;49.486;12.176;2023-12-04T02:17:31;97732.94;;;-10.44;100.00
29045;BME280;16133;49.486;12.176;2023-12-04T02:19:57;97738.06;;;-10.44;100.00
29045;BME280;16133;49.486;12.176;2023-12-04T02:22:23;97742.38;;;-10.46;100.00
29045;BME280;16133;49.486;12.176;2023-12-04T02:24:48;97737.34;;;-10.49;100.00
29045;BME280;16133;49.486;12.176;2023-12-04T02:27:18;97734.03;;;-10.52;100.00
29045;BME280;16133;49.486;12.176;2023-12-04T02:29:54;97723.03;;;-10.56;100.00
29045;BME280;16133;49.486;12.176;2023-12-04T02:32:22;97725.78;;;-10.62;100.00
29045;BME280;16133;49.486;12.176;2023-12-04T02:34:49;97723.22;;;-10.63;100.00
29045;BME280;16133;49.486;12.176;2023-12-04T02:37:16;97723.34;;;-10.67;100.00
29045;BME280;16133;49.486;12.176;2023-12-04T02:39:42;97718.19;;;-10.67;100.00
29045;BME280;16133;49.486;12.176;2023-12-04T02:42:08;97724.19;;;-10.66;100.00
29045;BME280;16133;49.486;12.176;2023-12-04T02:44:34;97731.13;;;-10.70;100.00
29045;BME280;16133;49.486;12.176;2023-12-04T02:46:59;97727.81;;;-10.73;100.00
29045;BME280;16133;49.486;12.176;2023-12-04T02:49:25;97729.53;;;-10.75;100.00
29045;BME280;16133;49.486;12.176;2023-12-04T02:51:50;97732.13;;;-10.77;100.00
29045;BME280;16133;49.486;12.176;2023-12-04T02:54:16;97721.97;;;-10.80;100.00
29045;BME280;16133;49.486;12.176;2023-12-04T02:56:41;97728.03;;;-10.82;100.00
29045;BME280;16133;49.486;12.176;2023-12-04T02:59:06;97721.31;;;-10.86;100.00
29045;BME280;16133;49.486;12.176;2023-12-04T03:01:32;97711.16;;;-10.89;100.00
29045;BME280;16133;49.486;12.176;2023-12-04T03:03:57;97698.44;;;-10.92;100.00
29045;BME280;16133;49.486;12.176;2023-12-04T03:06:23;97697.63;;;-10.94;100.00
29045;BME280;16133;49.486;12.176;2023-12-04T03:08:48;97695.91;;;-10.94;100.00
29045;BME280;16133;49.486;12.176;2023-12-04T03:11:13;97688.31;;;-10.97;100.00
29045;BME280;16133;49.486;12.176;2023-12-04T03:13:39;97687.56;;;-11.00;100.00
29045;BME280;16133;49.486;12.176;2023-12-04T03:16:04;97680.84;;;-11.04;100.00
29045;BME280;16133;49.486;12.176;2023-12-04T03:18:30;97680.09;;;-11.08;100.00
29045;BME280;16133;49.486;12.176;2023-12-04T03:20:55;97675.00;;;-11.09;100.00
29045;BME280;16133;49.486;12.176;2023-12-04T03:23:20;97676.78;;;-11.13;100.00
29045;BME280;16133;49.486;12.176;2023-12-04T03:25:46;97681.16;;;-11.17;100.00
29045;BME280;16133;49.486;12.176;2023-12-04T03:28:11;97670.09;;;-11.19;100.00
29045;BME280;16133;49.486;12.176;2023-12-04T03:30:38;97671.06;;;-11.23;100.00
29045;BME280;16133;49.486;12.176;2023-12-04T03:33:03;97683.09;;;-11.25;100.00
29045;BME280;16133;49.486;12.176;2023-12-04T03:35:29;97666.09;;;-11.27;100.00
29045;BME280;16133;49.486;12.176;2023-12-04T03:37:54;97666.13;;;-11.29;100.00
29045;BME280;16133;49.486;12.176;2023-12-04T03:40:19;97666.22;;;-11.32;100.00
29045;BME280;16133;49.486;12.176;2023-12-04T03:42:45;97665.47;;;-11.35;100.00
29045;BME280;16133;49.486;12.176;2023-12-04T03:45:10;97670.53;;;-11.34;100.00
29045;BME280;16133;49.486;12.176;2023-12-04T03:47:36;97667.13;;;-11.34;100.00
29045;BME280;16133;49.486;12.176;2023-12-04T03:50:01;97668.88;;;-11.35;100.00
29045;BME280;16133;49.486;12.176;2023-12-04T03:52:27;97655.25;;;-11.37;100.00
29045;BME280;16133;49.486;12.176;2023-12-04T03:54:52;97660.38;;;-11.37;100.00
29045;BME280;16133;49.486;12.176;2023-12-04T03:57:17;97656.13;;;-11.38;100.00
29045;BME280;16133;49.486;12.176;2023-12-04T03:59:43;97653.63;;;-11.39;100.00
29045;BME280;16133;49.486;12.176;2023-12-04T04:02:09;97657.91;;;-11.41;100.00
29045;BME280;16133;49.486;12.176;2023-12-04T04:04:34;97656.28;;;-11.44;100.00
29045;BME280;16133;49.486;12.176;2023-12-04T04:06:59;97654.59;;;-11.45;100.00
29045;BME280;16133;49.486;12.176;2023-12-04T04:09:25;97652.13;;;-11.48;100.00
29045;BME280;16133;49.486;12.176;2023-12-04T04:11:50;97642.09;;;-11.55;100.00
29045;BME280;16133;49.486;12.176;2023-12-04T04:14:15;97642.84;;;-11.52;100.00
29045;BME280;16133;49.486;12.176;2023-12-04T04:16:41;97639.50;;;-11.54;100.00
29045;BME280;16133;49.486;12.176;2023-12-04T04:19:06;97635.25;;;-11.55;100.00
29045;BME280;16133;49.486;12.176;2023-12-04T04:21:32;97639.56;;;-11.57;100.00
29045;BME280;16133;49.486;12.176;2023-12-04T04:23:57;97645.59;;;-11.58;100.00
29045;BME280;16133;49.486;12.176;2023-12-04T04:26:22;97646.44;;;-11.57;100.00
29045;BME280;16133;49.486;12.176;2023-12-04T04:28:48;97644.69;;;-11.57;100.00
29045;BME280;16133;49.486;12.176;2023-12-04T04:31:13;97649.00;;;-11.59;100.00
29045;BME280;16133;49.486;12.176;2023-12-04T04:33:38;97634.63;;;-11.63;100.00
29045;BME280;16133;49.486;12.176;2023-12-04T04:36:04;97637.16;;;-11.63;100.00
29045;BME280;16133;49.486;12.176;2023-12-04T04:38:30;97634.63;;;-11.65;100.00
29045;BME280;16133;49.486;12.176;2023-12-04T04:40:55;97632.13;;;-11.66;100.00
29045;BME280;16133;49.486;12.176;2023-12-04T04:43:20;97630.44;;;-11.66;100.00
29045;BME280;16133;49.486;12.176;2023-12-04T04:45:46;97638.94;;;-11.65;100.00
29045;BME280;16133;49.486;12.176;2023-12-04T04:48:11;97630.38;;;-11.64;100.00
29045;BME280;16133;49.486;12.176;2023-12-04T04:50:37;97621.06;;;-11.67;100.00
29045;BME280;16133;49.486;12.176;2023-12-04T04:53:02;97629.59;;;-11.66;100.00
29045;BME280;16133;49.486;12.176;2023-12-04T04:55:27;97625.38;;;-11.69;100.00
29045;BME280;16133;49.486;12.176;2023-12-04T04:57:53;97620.31;;;-11.70;100.00
29045;BME280;16133;49.486;12.176;2023-12-04T05:00:18;97628.88;;;-11.71;100.00
29045;BME280;16133;49.486;12.176;2023-12-04T05:02:44;97621.22;;;-11.73;100.00
29045;BME280;16133;49.486;12.176;2023-12-04T05:05:11;97617.88;;;-11.73;100.00
29045;BME280;16133;49.486;12.176;2023-12-04T05:07:36;97619.59;;;-11.75;100.00
29045;BME280;16133;49.486;12.176;2023-12-04T05:10:02;97620.47;;;-11.76;100.00
29045;BME280;16133;49.486;12.176;2023-12-04T05:12:27;97614.53;;;-11.77;100.00
29045;BME280;16133;49.486;12.176;2023-12-04T05:14:53;97607.78;;;-11.79;100.00
29045;BME280;16133;49.486;12.176;2023-12-04T05:17:18;97612.00;;;-11.78;100.00
29045;BME280;16133;49.486;12.176;2023-12-04T05:19:44;97611.19;;;-11.80;100.00
29045;BME280;16133;49.486;12.176;2023-12-04T05:22:09;97601.91;;;-11.83;100.00
29045;BME280;16133;49.486;12.176;2023-12-04T05:24:34;97595.94;;;-11.83;100.00
29045;BME280;16133;49.486;12.176;2023-12-04T05:27:01;97592.59;;;-11.85;100.00
29045;BME280;16133;49.486;12.176;2023-12-04T05:29:27;97588.25;;;-11.83;100.00
29045;BME280;16133;49.486;12.176;2023-12-04T05:31:52;97593.28;;;-11.80;100.00
29045;BME280;16133;49.486;12.176;2023-12-04T05:34:18;97589.06;;;-11.81;100.00
29045;BME280;16133;49.486;12.176;2023-12-04T05:36:43;97585.66;;;-11.82;100.00
29045;BME280;16133;49.486;12.176;2023-12-04T05:39:08;97583.13;;;-11.83;100.00
29045;BME280;16133;49.486;12.176;2023-12-04T05:41:34;97581.53;;;-11.87;100.00
29045;BME280;16133;49.486;12.176;2023-12-04T05:43:59;97573.75;;;-11.83;100.00
29045;BME280;16133;49.486;12.176;2023-12-04T05:46:25;97584.75;;;-11.79;100.00
29045;BME280;16133;49.486;12.176;2023-12-04T05:48:50;97573.63;;;-11.78;100.00
29045;BME280;16133;49.486;12.176;2023-12-04T05:51:15;97575.31;;;-11.77;100.00
29045;BME280;16133;49.486;12.176;2023-12-04T05:53:41;97576.97;;;-11.76;100.00
29045;BME280;16133;49.486;12.176;2023-12-04T05:56:07;97575.25;;;-11.74;100.00
29045;BME280;16133;49.486;12.176;2023-12-04T05:58:34;97566.56;;;-11.70;100.00
29045;BME280;16133;49.486;12.176;2023-12-04T06:01:00;97568.19;;;-11.68;100.00
29045;BME280;16133;49.486;12.176;2023-12-04T06:03:25;97564.75;;;-11.65;100.00
29045;BME280;16133;49.486;12.176;2023-12-04T06:05:50;97557.00;;;-11.64;100.00
29045;BME280;16133;49.486;12.176;2023-12-04T06:08:16;97550.19;;;-11.65;100.00
29045;BME280;16133;49.486;12.176;2023-12-04T06:10:41;97550.06;;;-11.60;100.00
29045;BME280;16133;49.486;12.176;2023-12-04T06:13:07;97552.53;;;-11.57;100.00
29045;BME280;16133;49.486;12.176;2023-12-04T06:15:32;97548.25;;;-11.56;100.00
29045;BME280;16133;49.486;12.176;2023-12-04T06:17:57;97544.00;;;-11.56;100.00
29045;BME280;16133;49.486;12.176;2023-12-04T06:20:23;97548.22;;;-11.55;100.00
29045;BME280;16133;49.486;12.176;2023-12-04T06:22:49;97547.38;;;-11.54;100.00
29045;BME280;16133;49.486;12.176;2023-12-04T06:25:15;97543.91;;;-11.53;100.00
29045;BME280;16133;49.486;12.176;2023-12-04T06:27:40;97538.75;;;-11.51;100.00
29045;BME280;16133;49.486;12.176;2023-12-04T06:30:06;97531.91;;;-11.51;100.00
29045;BME280;16133;49.486;12.176;2023-12-04T06:32:32;97532.69;;;-11.49;100.00
29045;BME280;16133;49.486;12.176;2023-12-04T06:34:58;97528.31;;;-11.45;100.00
29045;BME280;16133;49.486;12.176;2023-12-04T06:37:23;97532.56;;;-11.44;100.00
29045;BME280;16133;49.486;12.176;2023-12-04T06:39:49;97532.41;;;-11.38;100.00
29045;BME280;16133;49.486;12.176;2023-12-04T06:42:18;97521.13;;;-11.33;100.00
29045;BME280;16133;49.486;12.176;2023-12-04T06:44:43;97516.66;;;-11.26;100.00
29045;BME280;16133;49.486;12.176;2023-12-04T06:47:09;97513.88;;;-11.19;100.00
29045;BME280;16133;49.486;12.176;2023-12-04T06:49:37;97510.28;;;-11.11;100.00
29045;BME280;16133;49.486;12.176;2023-12-04T06:52:03;97499.00;;;-11.06;100.00
29045;BME280;16133;49.486;12.176;2023-12-04T06:54:28;97499.56;;;-10.96;100.00
29045;BME280;16133;49.486;12.176;2023-12-04T06:56:54;97497.59;;;-10.88;100.00
29045;BME280;16133;49.486;12.176;2023-12-04T06:59:20;97490.44;;;-10.77;100.00
29045;BME280;16133;49.486;12.176;2023-12-04T07:01:46;97501.09;;;-10.64;100.00
29045;BME280;16133;49.486;12.176;2023-12-04T07:04:11;97487.97;;;-10.54;100.00
29045;BME280;16133;49.486;12.176;2023-12-04T07:06:38;97482.41;;;-10.42;100.00
29045;BME280;16133;49.486;12.176;2023-12-04T07:09:03;97477.75;;;-10.31;100.00
29045;BME280;16133;49.486;12.176;2023-12-04T07:11:29;97475.69;;;-10.20;100.00
29045;BME280;16133;49.486;12.176;2023-12-04T07:13:54;97470.19;;;-10.10;100.00
29045;BME280;16133;49.486;12.176;2023-12-04T07:16:20;97474.22;;;-10.03;100.00
29045;BME280;16133;49.486;12.176;2023-12-04T07:18:45;97475.59;;;-9.93;100.00
29045;BME280;16133;49.486;12.176;2023-12-04T07:21:11;97471.69;;;-9.80;100.00
29045;BME280;16133;49.486;12.176;2023-12-04T07:23:36;97462.66;;;-9.67;100.00
29045;BME280;16133;49.486;12.176;2023-12-04T07:26:02;97472.38;;;-9.52;100.00
29045;BME280;16133;49.486;12.176;2023-12-04T07:28:28;97462.50;;;-9.39;100.00
29045;BME280;16133;49.486;12.176;2023-12-04T07:30:56;97464.53;;;-9.26;100.00
29045;BME280;16133;49.486;12.176;2023-12-04T07:33:21;97467.41;;;-9.11;100.00
29045;BME280;16133;49.486;12.176;2023-12-04T07:35:47;97466.06;;;-8.98;100.00
29045;BME280;16133;49.486;12.176;2023-12-04T07:38:12;97459.53;;;-8.85;100.00
29045;BME280;16133;49.486;12.176;2023-12-04T07:40:38;97460.84;;;-8.75;100.00
29045;BME280;16133;49.486;12.176;2023-12-04T07:43:03;97451.84;;;-8.65;100.00
29045;BME280;16133;49.486;12.176;2023-12-04T07:45:28;97452.38;;;-8.57;100.00
29045;BME280;16133;49.486;12.176;2023-12-04T07:47:54;97444.31;;;-8.48;100.00
29045;BME280;16133;49.486;12.176;2023-12-04T07:50:20;97443.00;;;-8.38;100.00
29045;BME280;16133;49.486;12.176;2023-12-04T07:52:45;97441.94;;;-8.32;100.00
29045;BME280;16133;49.486;12.176;2023-12-04T07:55:10;97448.38;;;-8.24;100.00
29045;BME280;16133;49.486;12.176;2023-12-04T07:57:36;97444.91;;;-8.23;100.00
29045;BME280;16133;49.486;12.176;2023-12-04T08:00:02;97439.78;;;-8.23;100.00
29045;BME280;16133;49.486;12.176;2023-12-04T08:02:27;97444.91;;;-8.23;100.00
29045;BME280;16133;49.486;12.176;2023-12-04T08:04:53;97443.88;;;-8.18;100.00
29045;BME280;16133;49.486;12.176;2023-12-04T08:07:18;97435.19;;;-8.16;100.00
29045;BME280;16133;49.486;12.176;2023-12-04T08:09:44;97433.25;;;-8.11;100.00
29045;BME280;16133;49.486;12.176;2023-12-04T08:12:10;97429.47;;;-8.02;100.00
29045;BME280;16133;49.486;12.176;2023-12-04T08:14:35;97431.63;;;-7.93;100.00
29045;BME280;16133;49.486;12.176;2023-12-04T08:17:00;97432.03;;;-7.82;100.00
29045;BME280;16133;49.486;12.176;2023-12-04T08:19:26;97427.28;;;-7.72;100.00
29045;BME280;16133;49.486;12.176;2023-12-04T08:21:51;97429.31;;;-7.60;100.00
29045;BME280;16133;49.486;12.176;2023-12-04T08:24:17;97423.53;;;-7.47;100.00
29045;BME280;16133;49.486;12.176;2023-12-04T08:26:44;97418.59;;;-7.33;100.00
29045;BME280;16133;49.486;12.176;2023-12-04T08:29:10;97423.25;;;-7.22;100.00
29045;BME280;16133;49.486;12.176;2023-12-04T08:31:36;97429.66;;;-7.12;100.00
29045;BME280;16133;49.486;12.176;2023-12-04T08:34:01;97426.56;;;-7.01;100.00
29045;BME280;16133;49.486;12.176;2023-12-04T08:36:27;97430.41;;;-6.91;100.00
29045;BME280;16133;49.486;12.176;2023-12-04T08:38:52;97422.97;;;-6.80;100.00
29045;BME280;16133;49.486;12.176;2023-12-04T08:41:17;97417.41;;;-6.71;100.00
29045;BME280;16133;49.486;12.176;2023-12-04T08:43:43;97419.50;;;-6.62;100.00
29045;BME280;16133;49.486;12.176;2023-12-04T08:46:14;97425.13;;;-6.54;100.00
29045;BME280;16133;49.486;12.176;2023-12-04T08:48:43;97407.69;;;-6.49;100.00
29045;BME280;16133;49.486;12.176;2023-12-04T08:51:15;97401.63;;;-6.48;100.00
29045;BME280;16133;49.486;12.176;2023-12-04T08:53:40;97401.63;;;-6.48;100.00
29045;BME280;16133;49.486;12.176;2023-12-04T08:56:06;97394.00;;;-6.51;100.00
29045;BME280;16133;49.486;12.176;2023-12-04T08:58:32;97406.84;;;-6.49;100.00
29045;BME280;16133;49.486;12.176;2023-12-04T09:00:57;97405.69;;;-6.44;100.00
29045;BME280;16133;49.486;12.176;2023-12-04T09:03:23;97410.47;;;-6.36;100.00
29045;BME280;16133;49.486;12.176;2023-12-04T09:05:49;97414.28;;;-6.26;100.00
29045;BME280;16133;49.486;12.176;2023-12-04T09:08:17;97404.41;;;-6.18;100.00
29045;BME280;16133;49.486;12.176;2023-12-04T09:10:42;97408.25;;;-6.09;100.00
29045;BME280;16133;49.486;12.176;2023-12-04T09:13:07;97398.25;;;-5.98;100.00
29045;BME280;16133;49.486;12.176;2023-12-04T09:15:33;97385.06;;;-5.94;100.00
29045;BME280;16133;49.486;12.176;2023-12-04T09:17:58;97385.41;;;-5.84;100.00
29045;BME280;16133;49.486;12.176;2023-12-04T09:20:24;97394.03;;;-5.68;100.00
29045;BME280;16133;49.486;12.176;2023-12-04T09:22:51;97395.03;;;-5.55;100.00
29045;BME280;16133;49.486;12.176;2023-12-04T09:25:16;97391.63;;;-5.40;100.00
29045;BME280;16133;49.486;12.176;2023-12-04T09:27:41;97379.88;;;-5.29;100.00
29045;BME280;16133;49.486;12.176;2023-12-04T09:30:07;97378.44;;;-5.19;100.00
29045;BME280;16133;49.486;12.176;2023-12-04T09:32:32;97379.47;;;-5.06;100.00
29045;BME280;16133;49.486;12.176;2023-12-04T09:34:58;97376.94;;;-4.92;100.00
29045;BME280;16133;49.486;12.176;2023-12-04T09:37:24;97369.22;;;-4.78;100.00
29045;BME280;16133;49.486;12.176;2023-12-04T09:39:49;97375.19;;;-4.62;100.00
29045;BME280;16133;49.486;12.176;2023-12-04T09:42:16;97375.06;;;-4.45;100.00
29045;BME280;16133;49.486;12.176;2023-12-04T09:44:44;97364.94;;;-4.33;100.00
29045;BME280;16133;49.486;12.176;2023-12-04T09:47:12;97358.19;;;-4.22;100.00
29045;BME280;16133;49.486;12.176;2023-12-04T09:49:37;97354.13;;;-4.12;100.00
29045;BME280;16133;49.486;12.176;2023-12-04T09:52:04;97352.75;;;-4.03;100.00
29045;BME280;16133;49.486;12.176;2023-12-04T09:54:29;97347.75;;;-3.92;100.00
29045;BME280;16133;49.486;12.176;2023-12-04T09:56:55;97346.72;;;-3.90;100.00
29045;BME280;16133;49.486;12.176;2023-12-04T09:59:23;97342.75;;;-3.81;100.00
29045;BME280;16133;49.486;12.176;2023-12-04T10:01:51;97340.72;;;-3.76;100.00
29045;BME280;16133;49.486;12.176;2023-12-04T10:04:16;97336.81;;;-3.69;100.00
29045;BME280;16133;49.486;12.176;2023-12-04T10:06:43;97333.84;;;-3.63;100.00
29045;BME280;16133;49.486;12.176;2023-12-04T10:09:08;97330.69;;;-3.54;100.00
29045;BME280;16133;49.486;12.176;2023-12-04T10:11:45;97317.97;;;-3.44;100.00
29045;BME280;16133;49.486;12.176;2023-12-04T10:14:21;97309.63;;;-3.35;100.00
29045;BME280;16133;49.486;12.176;2023-12-04T10:16:47;97305.41;;;-3.23;99.84
29045;BME280;16133;49.486;12.176;2023-12-04T10:21:46;97300.94;;;-2.95;99.58
29045;BME280;16133;49.486;12.176;2023-12-04T10:24:13;97287.78;;;-2.79;99.42
29045;BME280;16133;49.486;12.176;2023-12-04T10:26:51;97285.94;;;-2.64;98.97
29045;BME280;16133;49.486;12.176;2023-12-04T10:29:16;97287.63;;;-2.51;98.18
29045;BME280;16133;49.486;12.176;2023-12-04T10:31:42;97285.16;;;-2.39;97.04
29045;BME280;16133;49.486;12.176;2023-12-04T10:34:07;97277.25;;;-2.25;97.07
29045;BME280;16133;49.486;12.176;2023-12-04T10:36:35;97265.19;;;-2.14;95.86
29045;BME280;16133;49.486;12.176;2023-12-04T10:39:01;97269.16;;;-2.08;94.17
29045;BME280;16133;49.486;12.176;2023-12-04T10:41:30;97265.09;;;-2.00;93.51
29045;BME280;16133;49.486;12.176;2023-12-04T10:43:56;97265.19;;;-1.88;92.87
29045;BME280;16133;49.486;12.176;2023-12-04T10:46:21;97269.84;;;-1.81;91.90
29045;BME280;16133;49.486;12.176;2023-12-04T10:48:47;97260.88;;;-1.77;90.85
29045;BME280;16133;49.486;12.176;2023-12-04T10:51:15;97263.03;;;-1.71;89.63
29045;BME280;16133;49.486;12.176;2023-12-04T10:53:42;97262.81;;;-1.68;89.22
29045;BME280;16133;49.486;12.176;2023-12-04T10:56:36;97260.00;;;-1.65;88.69
29045;BME280;16133;49.486;12.176;2023-12-04T10:59:08;97253.09;;;-1.53;88.33
29045;BME280;16133;49.486;12.176;2023-12-04T11:01:36;97251.19;;;-1.38;88.02
29045;BME280;16133;49.486;12.176;2023-12-04T11:04:02;97256.84;;;-1.21;87.74
29045;BME280;16133;49.486;12.176;2023-12-04T11:06:34;97243.28;;;-1.13;86.09
29045;BME280;16133;49.486;12.176;2023-12-04T11:09:01;97239.03;;;-1.03;85.11
29045;BME280;16133;49.486;12.176;2023-12-04T11:11:31;97245.22;;;-1.04;82.29
29045;BME280;16133;49.486;12.176;2023-12-04T11:14:01;97246.69;;;-1.13;81.42
29045;BME280;16133;49.486;12.176;2023-12-04T11:16:37;97248.66;;;-1.27;80.51
29045;BME280;16133;49.486;12.176;2023-12-04T11:21:39;97233.63;;;-1.48;80.00
29045;BME280;16133;49.486;12.176;2023-12-04T11:24:06;97222.84;;;-1.54;80.61
29045;BME280;16133;49.486;12.176;2023-12-04T11:26:33;97221.72;;;-1.63;79.36
29045;BME280;16133;49.486;12.176;2023-12-04T11:28:59;97212.63;;;-1.81;79.25
29045;BME280;16133;49.486;12.176;2023-12-04T11:31:25;97205.16;;;-1.85;81.23
29045;BME280;16133;49.486;12.176;2023-12-04T11:33:51;97196.28;;;-1.83;82.45
29045;BME280;16133;49.486;12.176;2023-12-04T11:36:17;97191.28;;;-1.73;83.92
29045;BME280;16133;49.486;12.176;2023-12-04T11:38:47;97182.41;;;-1.71;83.75
29045;BME280;16133;49.486;12.176;2023-12-04T11:41:21;97191.06;;;-1.70;84.05
29045;BME280;16133;49.486;12.176;2023-12-04T11:43:47;97181.25;;;-1.67;84.40
29045;BME280;16133;49.486;12.176;2023-12-04T11:46:18;97185.59;;;-1.55;84.41
29045;BME280;16133;49.486;12.176;2023-12-04T11:48:47;97183.59;;;-1.51;84.99
29045;BME280;16133;49.486;12.176;2023-12-04T11:51:15;97187.06;;;-1.39;84.76
29045;BME280;16133;49.486;12.176;2023-12-04T11:54:00;97169.84;;;-1.29;85.07
29045;BME280;16133;49.486;12.176;2023-12-04T11:56:25;97167.28;;;-1.18;84.58
29045;BME280;16133;49.486;12.176;2023-12-04T11:58:51;97160.69;;;-1.11;84.57
29045;BME280;16133;49.486;12.176;2023-12-04T12:01:20;97179.88;;;-1.01;84.49
29045;BME280;16133;49.486;12.176;2023-12-04T12:03:50;97171.94;;;-1.00;83.45
29045;BME280;16133;49.486;12.176;2023-12-04T12:06:16;97163.09;;;-0.97;83.73
29045;BME280;16133;49.486;12.176;2023-12-04T12:08:41;97149.34;;;-0.99;84.34
29045;BME280;16133;49.486;12.176;2023-12-04T12:11:07;97154.09;;;-1.04;84.22
29045;BME280;16133;49.486;12.176;2023-12-04T12:13:33;97147.69;;;-1.11;83.00
29045;BME280;16133;49.486;12.176;2023-12-04T12:15:58;97154.25;;;-1.18;83.33
29045;BME280;16133;49.486;12.176;2023-12-04T12:18:24;97150.22;;;-1.22;83.57
29045;BME280;16133;49.486;12.176;2023-12-04T12:20:50;97149.63;;;-1.26;84.06
29045;BME280;16133;49.486;12.176;2023-12-04T12:23:15;97144.66;;;-1.29;84.08
29045;BME280;16133;49.486;12.176;2023-12-04T12:25:40;97144.88;;;-1.32;85.18
29045;BME280;16133;49.486;12.176;2023-12-04T12:28:06;97135.75;;;-1.37;84.65
29045;BME280;16133;49.486;12.176;2023-12-04T12:30:32;97141.41;;;-1.43;84.46
29045;BME280;16133;49.486;12.176;2023-12-04T12:32:57;97137.94;;;-1.55;85.04
29045;BME280;16133;49.486;12.176;2023-12-04T12:35:23;97127.16;;;-1.62;85.03
29045;BME280;16133;49.486;12.176;2023-12-04T12:37:50;97108.81;;;-1.84;85.20